Time;durP1;ratioP1;P1;durP2;ratioP2;P2;SDS_P1;SDS_P2;PMS_P1;PMS_P2;Temp;Humidity;BMP_temperature;BMP_pressure;BME280_temperature;BME280_humidity;BME280_pressure;Samples;Min_cycle;Max_cycle;Signal;HPM_P1;HPM_P2
2023/10/11 00:00:40;;;;;;;14.10;6.15;;;;;;;17.07;71.06;99763.47;5025860;28;20504;-48
2023/10/11 00:03:16;;;;;;;13.48;6.30;;;;;;;17.08;71.13;99770.41;5009038;28;20050;-47
2023/10/11 00:05:45;;;;;;;18.10;6.65;;;;;;;17.09;71.20;99756.41;5011591;28;20503;-47
2023/10/11 00:08:16;;;;;;;13.38;6.82;;;;;;;17.08;70.97;99752.09;5005175;28;20074;-49
2023/10/11 00:10:49;;;;;;;14.15;6.80;;;;;;;17.09;70.92;99745.94;5000339;28;20049;-48
2023/10/11 00:13:16;;;;;;;8.10;3.85;;;;;;;17.09;71.15;99745.94;5006669;28;20475;-48
2023/10/11 00:15:48;;;;;;;10.10;5.40;;;;;;;17.09;71.81;99735.47;5000576;28;20054;-49
2023/10/11 00:18:21;;;;;;;10.88;5.80;;;;;;;17.09;71.55;99751.16;5017279;28;20056;-48
2023/10/11 00:20:52;;;;;;;12.65;6.55;;;;;;;17.11;71.99;99754.59;5005228;28;20104;-49
2023/10/11 00:23:22;;;;;;;10.82;5.38;;;;;;;17.09;71.87;99746.81;5012560;28;20514;-45
2023/10/11 00:25:51;;;;;;;9.45;5.15;;;;;;;17.13;71.75;99749.31;5015475;28;20045;-45
2023/10/11 00:28:26;;;;;;;8.98;6.03;;;;;;;17.15;71.35;99744.88;5000442;28;20045;-47
2023/10/11 00:30:56;;;;;;;11.43;4.72;;;;;;;17.13;72.23;99758.03;5015705;28;20087;-50
2023/10/11 00:33:24;;;;;;;10.55;5.65;;;;;;;17.14;72.36;99749.25;5008551;28;20133;-46
2023/10/11 00:36:05;;;;;;;10.70;5.88;;;;;;;17.15;72.49;99744.88;5014647;28;20079;-46
2023/10/11 00:38:43;;;;;;;13.35;5.30;;;;;;;17.13;72.67;99747.56;5015347;28;20168;-47
2023/10/11 00:41:12;;;;;;;8.77;5.22;;;;;;;17.14;72.26;99751.88;5013005;28;20053;-46
2023/10/11 00:43:41;;;;;;;8.15;4.93;;;;;;;17.18;72.87;99755.22;5015845;28;20046;-44
2023/10/11 00:46:10;;;;;;;9.48;4.78;;;;;;;17.15;72.66;99737.88;5018233;28;20481;-47
2023/10/11 00:48:51;;;;;;;10.68;4.85;;;;;;;17.16;72.64;99742.19;5012771;28;20124;-48
2023/10/11 00:51:26;;;;;;;8.23;5.32;;;;;;;17.19;72.81;99736.88;5013614;28;20049;-48
2023/10/11 00:53:54;;;;;;;7.70;4.97;;;;;;;17.19;72.63;99733.41;5019469;28;20042;-47
2023/10/11 00:56:26;;;;;;;9.35;4.85;;;;;;;17.20;72.65;99733.31;5005889;28;20108;-48
2023/10/11 00:58:55;;;;;;;7.80;4.53;;;;;;;17.21;72.55;99735.06;4997322;28;20049;-47
2023/10/11 01:01:23;;;;;;;6.97;4.15;;;;;;;17.22;72.29;99735.91;4998718;28;20058;-47
2023/10/11 01:03:53;;;;;;;6.75;4.35;;;;;;;17.24;72.03;99739.31;5001385;28;20124;-47
2023/10/11 01:06:25;;;;;;;8.98;4.25;;;;;;;17.25;73.10;99734.97;5001084;28;20058;-46
2023/10/11 01:08:53;;;;;;;6.25;3.65;;;;;;;17.25;72.47;99750.66;5002975;28;20302;-46
2023/10/11 01:11:21;;;;;;;8.60;4.57;;;;;;;17.25;72.98;99735.78;5000011;28;20110;-47
2023/10/11 01:13:52;;;;;;;9.00;4.60;;;;;;;17.26;73.01;99731.44;5006487;28;20034;-49
2023/10/11 01:16:25;;;;;;;6.07;3.83;;;;;;;17.27;72.93;99725.28;5000199;28;20058;-47
2023/10/11 01:18:52;;;;;;;7.75;4.38;;;;;;;17.28;72.45;99719.13;4993878;28;20503;-50
2023/10/11 01:21:19;;;;;;;6.80;5.10;;;;;;;17.31;73.15;99724.25;5003994;28;20062;-50
2023/10/11 01:23:46;;;;;;;6.03;4.18;;;;;;;17.32;72.94;99720.72;5002960;28;20069;-46
2023/10/11 01:26:13;;;;;;;6.13;4.20;;;;;;;17.33;73.50;99717.22;5000294;28;20590;-45
2023/10/11 01:28:42;;;;;;;9.88;4.13;;;;;;;17.32;72.85;99715.47;5002701;28;20045;-46
2023/10/11 01:31:09;;;;;;;5.80;4.22;;;;;;;17.33;73.37;99701.50;4998506;28;20046;-47
2023/10/11 01:33:41;;;;;;;7.57;4.60;;;;;;;17.32;73.13;99707.63;5000562;28;20073;-51
2023/10/11 01:36:11;;;;;;;6.05;4.68;;;;;;;17.30;73.60;99702.44;5000596;28;20052;-46
2023/10/11 01:38:47;;;;;;;6.50;4.80;;;;;;;17.33;73.32;99701.50;4999161;28;20046;-50
2023/10/11 01:41:22;;;;;;;;;;;;;;;17.20;74.06;99706.31;5002454;28;20068;-47
2023/10/11 01:43:50;;;;;;;6.65;4.07;;;;;;;17.30;73.55;99696.38;4997207;28;20394;-46
2023/10/11 01:46:24;;;;;;;6.25;4.10;;;;;;;17.31;73.71;99698.94;4998565;28;20057;-46
2023/10/11 01:48:53;;;;;;;8.93;4.00;;;;;;;17.31;73.70;99682.38;5004155;28;20729;-46
2023/10/11 01:51:26;;;;;;;5.80;3.85;;;;;;;17.32;73.02;99682.31;5001195;28;20053;-48
2023/10/11 01:53:55;;;;;;;5.80;4.43;;;;;;;17.34;73.80;99682.28;5001492;28;20498;-47
2023/10/11 01:56:24;;;;;;;6.75;4.43;;;;;;;17.33;73.59;99691.88;4993077;28;20077;-47
2023/10/11 01:58:53;;;;;;;7.35;4.15;;;;;;;17.36;73.19;99690.06;5000400;28;20050;-46
2023/10/11 02:01:21;;;;;;;6.10;4.32;;;;;;;17.35;73.60;99689.19;4997218;28;20049;-46
2023/10/11 02:03:52;;;;;;;8.23;5.63;;;;;;;17.37;73.15;99695.25;4994358;28;20066;-47
2023/10/11 02:06:19;;;;;;;6.72;4.65;;;;;;;17.36;73.71;99674.38;4997743;28;20107;-46
2023/10/11 02:08:46;;;;;;;7.80;5.00;;;;;;;17.36;73.94;99669.97;5001881;28;20065;-48
2023/10/11 02:11:15;;;;;;;7.20;4.32;;;;;;;17.37;73.67;99666.44;5001124;28;20058;-52
2023/10/11 02:13:43;;;;;;;7.18;4.97;;;;;;;17.38;73.56;99656.81;5003974;28;20045;-46
2023/10/11 02:16:14;;;;;;;6.05;4.50;;;;;;;17.37;74.37;99666.44;5001897;28;20042;-46
2023/10/11 02:18:41;;;;;;;5.38;4.18;;;;;;;17.37;73.57;99671.69;4982413;28;20070;-48
2023/10/11 02:21:08;;;;;;;7.45;4.40;;;;;;;17.37;74.13;99661.22;4997628;28;20057;-47
2023/10/11 02:23:39;;;;;;;7.43;4.18;;;;;;;17.38;73.80;99657.69;4998887;28;20078;-49
2023/10/11 02:26:12;;;;;;;6.40;4.32;;;;;;;17.37;73.20;99652.50;5001960;28;20049;-45
2023/10/11 02:28:40;;;;;;;10.05;4.93;;;;;;;17.36;73.97;99654.25;4992048;28;20046;-46
2023/10/11 02:31:07;;;;;;;6.97;4.22;;;;;;;17.35;73.78;99652.56;5001212;28;20058;-46
2023/10/11 02:33:35;;;;;;;7.10;5.03;;;;;;;17.38;73.57;99657.69;5025897;28;20056;-46
2023/10/11 02:36:17;;;;;;;8.30;5.13;;;;;;;17.32;73.84;99650.91;4998584;28;20133;-46
2023/10/11 02:38:50;;;;;;;9.93;4.28;;;;;;;17.35;74.13;99660.41;5019831;28;20054;-51
2023/10/11 02:41:24;;;;;;;8.05;4.43;;;;;;;17.37;73.55;99650.75;5003562;28;20080;-48
2023/10/11 02:43:53;;;;;;;8.85;5.28;;;;;;;17.34;74.55;99643.88;5032052;28;20049;-51
2023/10/11 02:46:23;;;;;;;9.05;4.25;;;;;;;17.34;74.43;99648.25;4998224;28;20128;-51
2023/10/11 02:49:05;;;;;;;8.63;5.15;;;;;;;17.33;74.42;99643.94;5001757;28;20542;-46
2023/10/11 02:51:33;;;;;;;8.60;4.65;;;;;;;17.32;74.43;99642.19;5029654;28;20875;-48
2023/10/11 02:54:04;;;;;;;7.82;4.93;;;;;;;17.32;73.61;99636.97;4998112;28;20051;-50
2023/10/11 02:56:46;;;;;;;7.32;4.32;;;;;;;17.31;73.68;99651.84;4994892;28;20134;-48
2023/10/11 02:59:30;;;;;;;7.65;4.22;;;;;;;17.30;74.60;99634.41;5001653;28;20050;-46
2023/10/11 03:02:00;;;;;;;6.50;3.25;;;;;;;17.29;73.96;99637.09;4992852;28;20426;-50
2023/10/11 03:07:21;;;;;;;4.95;3.13;;;;;;;17.28;74.03;99636.22;5099266;27;20390;-47
2023/10/11 03:09:49;;;;;;;5.53;3.08;;;;;;;17.29;74.24;99631.88;5081246;28;20094;-45
2023/10/11 03:12:26;;;;;;;4.65;2.83;;;;;;;17.29;74.67;99634.47;5057846;28;20049;-45
2023/10/11 03:14:54;;;;;;;6.60;3.25;;;;;;;17.29;74.86;99637.94;5068875;28;20044;-46
2023/10/11 03:17:22;;;;;;;6.82;3.25;;;;;;;17.31;74.16;99637.88;5073888;28;20558;-47
2023/10/11 03:19:49;;;;;;;5.25;2.53;;;;;;;17.32;74.69;99650.03;5070309;28;20127;-46
2023/10/11 03:22:19;;;;;;;7.97;3.10;;;;;;;17.32;74.50;99653.53;5072838;28;20048;-47
2023/10/11 03:24:53;;;;;;;5.40;2.72;;;;;;;17.34;74.89;99661.31;5072013;28;20044;-45
2023/10/11 03:27:23;;;;;;;4.40;2.60;;;;;;;17.33;74.88;99672.72;5064030;28;20094;-46
2023/10/11 03:29:53;;;;;;;7.15;2.63;;;;;;;17.34;75.12;99677.03;5073014;28;20048;-49
2023/10/11 03:32:25;;;;;;;6.22;2.50;;;;;;;17.38;74.30;99683.00;5065801;28;20056;-47
2023/10/11 03:34:53;;;;;;;4.93;2.53;;;;;;;17.39;74.64;99671.63;5049259;28;20044;-46
2023/10/11 03:37:19;;;;;;;5.80;2.42;;;;;;;17.39;74.84;99675.09;5061338;28;20559;-50
2023/10/11 03:39:56;;;;;;;6.95;2.55;;;;;;;17.42;75.12;99681.97;5065478;28;20051;-45
2023/10/11 03:45:10;;;;;;;5.00;2.20;;;;;;;17.43;74.50;99681.91;5057538;28;20045;-47
2023/10/11 03:47:38;;;;;;;4.82;2.55;;;;;;;17.44;74.76;99674.94;5062037;28;20463;-45
2023/10/11 03:50:06;;;;;;;5.93;2.38;;;;;;;17.46;74.45;99671.34;5061576;28;20056;-45
2023/10/11 03:52:33;;;;;;;4.97;2.05;;;;;;;17.49;74.87;99674.75;5069894;28;20045;-46
2023/10/11 03:55:09;;;;;;;5.72;2.53;;;;;;;17.51;74.93;99670.31;5060483;28;20045;-47
2023/10/11 03:57:41;;;;;;;4.05;2.40;;;;;;;17.51;75.37;99667.69;5062172;28;20045;-47
2023/10/11 04:00:28;;;;;;;5.82;2.47;;;;;;;17.53;74.59;99669.34;5067991;28;20476;-49
2023/10/11 04:03:02;;;;;;;4.55;2.20;;;;;;;17.54;74.16;99651.88;5062502;28;20041;-46
2023/10/11 04:05:34;;;;;;;5.05;2.67;;;;;;;17.56;74.83;99650.06;5065977;28;20037;-48
2023/10/11 04:08:05;;;;;;;3.20;1.92;;;;;;;17.57;74.49;99651.75;5070054;28;20137;-49
2023/10/11 04:10:46;;;;;;;5.15;2.53;;;;;;;17.58;74.70;99653.44;5061915;28;20037;-49
2023/10/11 04:13:15;;;;;;;4.05;2.42;;;;;;;17.56;75.29;99645.66;5073967;28;20044;-46
2023/10/11 04:15:42;;;;;;;3.25;1.98;;;;;;;17.59;75.12;99649.91;5070859;28;20102;-51
2023/10/11 04:21:13;;;;;;;6.20;2.53;;;;;;;17.58;74.71;99658.69;5049284;28;20056;-46
2023/10/11 04:23:41;;;;;;;3.67;2.03;;;;;;;17.55;75.35;99654.44;5050810;28;20045;-46
2023/10/11 04:26:09;;;;;;;4.45;1.83;;;;;;;17.60;74.53;99664.75;5054125;28;20055;-46
2023/10/11 04:28:41;;;;;;;4.38;1.98;;;;;;;17.60;74.73;99662.13;5058437;28;20057;-49
2023/10/11 04:31:54;;;;;;;5.32;2.80;;;;;;;17.62;75.06;99668.13;5053121;28;20488;-48
2023/10/11 04:33:55;;;;;;;6.07;2.15;;;;;;;17.63;75.13;99646.25;5049276;28;20496;-47
2023/10/11 04:36:21;;;;;;;3.83;2.22;;;;;;;17.63;75.08;99646.25;5054203;28;20151;-47
2023/10/11 04:38:49;;;;;;;4.10;2.35;;;;;;;17.62;75.22;99638.50;5052181;28;20041;-45
2023/10/11 04:41:18;;;;;;;4.30;1.90;;;;;;;17.60;75.23;99630.69;5059368;28;20052;-55
2023/10/11 04:43:50;;;;;;;4.22;2.35;;;;;;;17.58;74.69;99627.28;5050340;28;20049;-48
2023/10/11 04:46:18;;;;;;;3.88;2.25;;;;;;;17.57;75.24;99615.09;5047352;28;20045;-47
2023/10/11 04:48:45;;;;;;;4.35;2.05;;;;;;;17.56;74.66;99614.22;5051264;28;20049;-48
2023/10/11 04:53:58;;;;;;;5.15;2.08;;;;;;;17.54;74.89;99594.25;5052847;27;20413;-46
2023/10/11 04:56:52;;;;;;;6.10;2.65;;;;;;;17.51;75.22;99583.91;5029488;28;20068;-47
2023/10/11 04:59:20;;;;;;;2.50;1.63;;;;;;;17.50;75.64;99571.75;5028156;28;20046;-49
2023/10/11 05:04:28;;;;;;;3.45;3.15;;;;;;;17.43;76.02;99592.91;5057141;27;20434;-48
2023/10/11 05:06:55;;;;;;;3.83;3.38;;;;;;;17.43;76.17;99592.91;5023508;28;20410;-47
2023/10/11 05:09:38;;;;;;;5.72;3.58;;;;;;;17.46;76.13;99582.31;5025257;28;20041;-48
2023/10/11 05:22:59;;;;;;;8.95;3.67;;;;;;;17.58;76.85;99624.66;5043753;27;20751;-46
2023/10/11 05:31:19;;;;;;;5.30;3.15;;;;;;;17.60;76.00;99667.34;5079470;27;20906;-48
2023/10/11 05:33:58;;;;;;;4.25;2.60;;;;;;;17.59;75.96;99663.00;5083818;28;20055;-48
2023/10/11 05:36:40;;;;;;;5.25;3.17;;;;;;;17.59;76.06;99650.78;5072007;28;20059;-46
2023/10/11 05:53:01;;;;;;;7.43;3.90;;;;;;;17.58;75.93;99670.03;5081890;28;20411;-46
2023/10/11 05:55:28;;;;;;;5.95;2.95;;;;;;;17.57;76.88;99675.31;5086056;28;20045;-46
2023/10/11 05:57:55;;;;;;;4.88;3.13;;;;;;;17.58;76.29;99669.16;5078360;28;20041;-47
2023/10/11 06:00:26;;;;;;;3.92;2.35;;;;;;;17.57;76.45;99688.41;5083872;28;20490;-47
2023/10/11 06:02:53;;;;;;;7.35;3.28;;;;;;;17.59;76.93;99708.38;5078080;28;20044;-45
2023/10/11 06:05:24;;;;;;;6.80;4.43;;;;;;;17.59;76.31;99676.09;5076055;28;20123;-47
2023/10/11 06:08:07;;;;;;;5.80;3.67;;;;;;;17.60;76.29;99697.00;5073593;28;20053;-46
2023/10/11 06:10:49;;;;;;;7.97;3.70;;;;;;;17.59;76.43;99686.56;5071736;28;20048;-48
2023/10/11 06:13:18;;;;;;;5.65;3.30;;;;;;;17.58;76.74;99684.88;5071620;28;20052;-48
2023/10/11 06:15:58;;;;;;;3.78;2.55;;;;;;;17.58;76.42;99684.88;5081556;28;20044;-46
2023/10/11 06:18:43;;;;;;;6.60;3.38;;;;;;;17.57;77.31;99698.88;5100745;28;20403;-49
2023/10/11 06:21:24;;;;;;;4.38;2.15;;;;;;;17.55;76.49;99693.72;5095655;28;20130;-48
2023/10/11 06:23:53;;;;;;;4.85;2.55;;;;;;;17.56;77.18;99699.81;5104100;27;20054;-50
2023/10/11 06:26:28;;;;;;;4.55;2.83;;;;;;;17.57;77.56;99697.09;5103765;28;20060;-49
2023/10/11 06:29:03;;;;;;;4.68;2.72;;;;;;;17.56;76.67;99703.25;5099206;28;20047;-45
2023/10/11 06:31:34;;;;;;;5.65;4.28;;;;;;;17.57;76.95;99709.34;5102703;28;20582;-48
2023/10/11 06:34:04;;;;;;;4.63;2.60;;;;;;;17.58;77.44;99700.59;5098867;28;20047;-46
2023/10/11 06:36:35;;;;;;;4.60;2.83;;;;;;;17.58;77.70;99711.94;5103986;27;20093;-46
2023/10/11 06:39:19;;;;;;;6.07;2.53;;;;;;;17.59;77.29;99694.44;5102397;27;20056;-47
2023/10/11 06:41:50;;;;;;;5.88;2.95;;;;;;;17.58;77.07;99698.84;5092376;28;20126;-48
2023/10/11 06:44:18;;;;;;;5.53;2.30;;;;;;;17.58;77.18;99695.34;5085597;28;20083;-46
2023/10/11 06:46:47;;;;;;;39.00;8.30;;;;;;;17.58;77.29;99705.81;5084321;28;20056;-53
2023/10/11 06:49:14;;;;;;;17.38;4.07;;;;;;;17.58;77.23;99711.94;5088657;28;20040;-49
2023/10/11 06:51:41;;;;;;;51.08;9.35;;;;;;;17.59;77.54;99707.53;5090037;28;20082;-46
2023/10/11 06:54:08;;;;;;;36.15;8.15;;;;;;;17.58;77.48;99709.31;5091124;28;20051;-49
2023/10/11 06:56:38;;;;;;;23.63;4.38;;;;;;;17.58;77.30;99711.06;5085077;28;20044;-46
2023/10/11 06:59:05;;;;;;;;;;;;;;;17.44;78.34;99709.81;5089394;28;20048;-47
2023/10/11 07:01:35;;;;;;;39.30;12.75;;;;;;;17.55;77.95;99695.47;5084691;28;19924;-47
2023/10/11 07:04:03;;;;;;;6.18;3.25;;;;;;;17.58;78.11;99672.66;5085707;28;20047;-47
2023/10/11 07:06:35;;;;;;;4.35;3.03;;;;;;;17.57;77.73;99628.19;5086223;28;20055;-46
2023/10/11 07:09:05;;;;;;;4.30;2.05;;;;;;;17.56;77.92;99640.41;5080905;28;20047;-48
2023/10/11 07:14:18;;;;;;;4.85;3.17;;;;;;;17.56;77.70;99623.88;5087489;28;20452;-45
2023/10/11 07:16:46;;;;;;;3.20;1.83;;;;;;;17.58;78.24;99627.28;5087694;28;20058;-47
2023/10/11 07:19:15;;;;;;;3.17;1.50;;;;;;;17.57;77.86;99657.00;5074565;28;20522;-48
2023/10/11 07:22:02;;;;;;;10.00;3.97;;;;;;;17.58;77.63;99654.31;5081129;28;20118;-47
2023/10/11 07:27:08;;;;;;;4.68;3.30;;;;;;;17.62;77.74;99638.50;5084397;27;20413;-50
2023/10/11 07:29:42;;;;;;;9.50;4.63;;;;;;;17.64;77.75;99641.88;5063155;28;20040;-50
2023/10/11 07:32:18;;;;;;;7.00;4.55;;;;;;;17.65;77.77;99635.72;5060907;28;20072;-49
2023/10/11 07:34:47;;;;;;;5.78;3.28;;;;;;;17.67;77.77;99637.38;5076246;28;20138;-50
2023/10/11 07:37:19;;;;;;;3.75;2.67;;;;;;;17.69;77.96;99640.81;5078781;28;20048;-49
2023/10/11 07:39:47;;;;;;;6.20;3.28;;;;;;;17.69;78.26;99630.31;5059944;28;20135;-49
2023/10/11 07:42:18;;;;;;;20.05;6.15;;;;;;;17.69;78.34;99630.31;5066090;28;20048;-48
2023/10/11 07:44:50;;;;;;;3.65;3.13;;;;;;;17.72;78.14;99629.34;5066289;28;20052;-49
2023/10/11 07:47:18;;;;;;;7.00;3.33;;;;;;;17.76;78.22;99625.69;5072929;28;20510;-46
2023/10/11 07:49:49;;;;;;;4.32;3.92;;;;;;;17.78;78.45;99617.78;5079588;28;20134;-50
2023/10/11 07:52:19;;;;;;;4.30;3.00;;;;;;;17.81;78.53;99607.19;5074969;28;20044;-47
2023/10/11 07:54:47;;;;;;;4.28;3.88;;;;;;;17.86;78.04;99621.81;5071510;28;20052;-48
2023/10/11 07:57:15;;;;;;;6.55;3.60;;;;;;;17.95;77.74;99619.72;5081283;28;20052;-48
2023/10/11 07:59:43;;;;;;;5.13;3.60;;;;;;;18.04;78.57;99626.38;5072076;28;20090;-47
2023/10/11 08:02:26;;;;;;;5.05;3.38;;;;;;;18.12;77.52;99626.94;5071772;28;20066;-48
2023/10/11 08:04:55;;;;;;;4.43;2.65;;;;;;;18.27;78.51;99635.09;5058418;28;20056;-47
2023/10/11 08:07:23;;;;;;;3.22;2.75;;;;;;;18.35;77.87;99627.75;5053864;28;20049;-49
2023/10/11 08:09:53;;;;;;;3.55;2.25;;;;;;;18.39;77.83;99624.09;5045669;28;20044;-49
2023/10/11 08:12:23;;;;;;;4.30;3.13;;;;;;;18.42;77.10;99629.19;5065259;28;20045;-50
2023/10/11 08:14:53;;;;;;;2.42;1.77;;;;;;;18.44;76.84;99621.28;5082313;28;20497;-48
2023/10/11 08:17:21;;;;;;;3.55;2.05;;;;;;;18.45;76.77;99626.47;5074832;28;20079;-47
2023/10/11 08:19:53;;;;;;;4.22;2.53;;;;;;;18.46;76.93;99630.78;5071272;28;20125;-50
2023/10/11 08:22:22;;;;;;;4.10;2.70;;;;;;;18.51;76.53;99625.34;5065406;28;20091;-46
2023/10/11 08:24:56;;;;;;;2.88;2.55;;;;;;;18.53;76.85;99627.88;5071062;28;20060;-48
2023/10/11 08:30:23;;;;;;;1.52;0.90;;;;;;;18.63;76.72;99647.53;5012010;28;20416;-48
2023/10/11 08:32:51;;;;;;;1.60;1.05;;;;;;;18.71;76.45;99629.69;4986239;28;20078;-48
2023/10/11 08:35:33;;;;;;;1.40;0.60;;;;;;;18.67;76.16;99627.31;4983652;28;20074;-49
2023/10/11 08:38:16;;;;;;;5.20;0.80;;;;;;;18.62;76.38;99635.34;4979039;28;20050;-47
2023/10/11 08:40:43;;;;;;;2.05;1.00;;;;;;;18.61;75.92;99638.91;4985175;28;20843;-47
2023/10/11 08:43:15;;;;;;;3.05;1.17;;;;;;;18.57;76.51;99646.03;4985761;28;20073;-48
2023/10/11 08:45:49;;;;;;;3.88;1.02;;;;;;;18.58;76.69;99644.28;4984661;28;20047;-51
2023/10/11 08:48:17;;;;;;;1.83;0.90;;;;;;;18.60;76.66;99639.81;4988271;28;20045;-48
2023/10/11 08:50:52;;;;;;;2.47;2.28;;;;;;;18.79;76.62;99631.16;4981496;28;20263;-46
2023/10/11 08:53:21;;;;;;;2.25;1.00;;;;;;;19.04;76.56;99643.19;4982140;28;20047;-49
2023/10/11 08:55:54;;;;;;;1.80;1.08;;;;;;;19.17;75.81;99657.50;4986283;28;20074;-47
2023/10/11 08:58:27;;;;;;;1.67;1.02;;;;;;;19.39;76.03;99661.78;4983942;28;20097;-49
2023/10/11 09:00:56;;;;;;;2.47;1.00;;;;;;;20.04;75.55;99650.84;4984166;28;20062;-48
2023/10/11 09:03:23;;;;;;;2.17;1.20;;;;;;;20.52;74.33;99663.44;5016455;28;20050;-50
2023/10/11 09:05:58;;;;;;;2.00;0.70;;;;;;;20.55;72.74;99662.44;4984979;28;20046;-49
2023/10/11 09:08:31;;;;;;;1.25;0.77;;;;;;;20.46;72.75;99663.75;4984487;28;20054;-47
2023/10/11 09:11:28;;;;;;;2.90;0.70;;;;;;;20.37;72.73;99664.22;4985199;28;20066;-48
2023/10/11 09:16:46;;;;;;;1.75;1.63;;;;;;;20.25;73.30;99650.75;5100411;27;20405;-48
2023/10/11 09:19:19;;;;;;;1.63;0.90;;;;;;;20.27;72.92;99648.88;5081274;28;20426;-51
2023/10/11 09:22:05;;;;;;;2.22;0.93;;;;;;;20.34;72.88;99653.84;5083816;28;20056;-48
2023/10/11 09:24:48;;;;;;;3.08;1.48;;;;;;;20.48;73.01;99655.78;5078034;28;20044;-46
2023/10/11 09:29:52;;;;;;;2.95;2.42;;;;;;;21.01;72.38;99653.94;5074693;27;20412;-48
2023/10/11 09:32:30;;;;;;;2.90;2.65;;;;;;;21.26;71.27;99657.06;5061010;28;20758;-49
2023/10/11 09:34:57;;;;;;;2.67;2.47;;;;;;;21.53;71.53;99654.72;5061326;28;20065;-47
2023/10/11 09:37:24;;;;;;;2.85;2.65;;;;;;;21.70;70.84;99658.19;5057938;28;20064;-48
2023/10/11 09:39:56;;;;;;;2.30;2.17;;;;;;;21.78;70.28;99648.13;5062706;28;20132;-47
2023/10/11 09:42:25;;;;;;;2.53;2.33;;;;;;;21.90;69.36;99657.13;5077771;28;20051;-48
2023/10/11 09:44:57;;;;;;;0.90;0.50;;;;;;;22.06;69.17;99641.25;5084252;28;20516;-47
2023/10/11 09:47:31;;;;;;;2.72;2.53;;;;;;;22.21;69.23;99646.59;5072154;28;20060;-47
2023/10/11 09:50:00;;;;;;;2.15;2.05;;;;;;;22.37;69.02;99648.34;5068739;28;20063;-48
2023/10/11 09:52:29;;;;;;;2.50;2.30;;;;;;;22.56;68.53;99643.69;5082957;28;20127;-48
2023/10/11 09:55:08;;;;;;;2.72;2.53;;;;;;;22.72;68.46;99650.69;5060969;28;20080;-46
2023/10/11 09:57:50;;;;;;;2.30;2.10;;;;;;;22.83;68.06;99647.44;5063820;28;20734;-50
2023/10/11 10:03:04;;;;;;;4.38;0.63;;;;;;;23.01;66.69;99641.94;5067627;27;20405;-50
2023/10/11 10:06:18;;;;;;;0.88;0.77;;;;;;;23.18;66.92;99647.06;5052505;28;20048;-49
2023/10/11 10:08:50;;;;;;;1.52;0.75;;;;;;;23.41;66.78;99646.56;5060212;28;20128;-49
2023/10/11 10:11:19;;;;;;;3.35;0.85;;;;;;;23.53;66.48;99653.72;5045955;28;20041;-50
2023/10/11 10:14:06;;;;;;;;;;;;;;;23.61;65.94;99656.72;5039344;28;20076;-49
2023/10/11 10:17:13;;;;;;;2.05;0.88;;;;;;;23.56;65.37;99653.53;5042943;28;19929;-49
2023/10/11 10:19:43;;;;;;;2.05;0.88;;;;;;;23.39;65.08;99651.97;5034948;28;20070;-48
2023/10/11 10:24:55;;;;;;;3.70;1.23;;;;;;;23.08;65.42;99659.13;5029387;27;20835;-46
2023/10/11 10:30:04;;;;;;;4.13;1.20;;;;;;;22.89;65.52;99654.13;5054048;27;20778;-49
2023/10/11 10:32:32;;;;;;;2.70;1.00;;;;;;;22.75;65.35;99653.16;5031089;28;20044;-48
2023/10/11 10:37:56;;;;;;;2.30;2.10;;;;;;;22.72;65.54;99658.63;5031687;28;20764;-47
2023/10/11 10:40:25;;;;;;;1.65;1.08;;;;;;;22.67;64.95;99660.69;5005803;28;20081;-49
2023/10/11 10:45:47;;;;;;;2.40;2.20;;;;;;;22.50;65.29;99651.97;5053976;28;20914;-45
2023/10/11 10:48:18;;;;;;;3.17;2.58;;;;;;;22.45;66.17;99651.38;5027129;28;20054;-47
2023/10/11 10:50:48;;;;;;;1.20;1.10;;;;;;;22.40;65.99;99650.81;5021385;28;20621;-49
2023/10/11 10:53:15;;;;;;;3.42;2.20;;;;;;;22.33;65.66;99642.41;5017090;28;20049;-49
2023/10/11 10:55:43;;;;;;;2.25;2.10;;;;;;;22.21;65.48;99657.16;5016953;28;20057;-52
2023/10/11 10:58:20;;;;;;;2.90;2.70;;;;;;;22.04;65.68;99651.06;5015943;28;20056;-50
2023/10/11 11:00:52;;;;;;;3.95;2.97;;;;;;;21.93;65.75;99656.09;5047805;28;20081;-47
2023/10/11 11:03:21;;;;;;;3.10;2.42;;;;;;;21.81;65.92;99663.75;5012085;28;20053;-49
2023/10/11 11:05:55;;;;;;;2.88;2.20;;;;;;;21.72;66.36;99658.13;5017630;28;20049;-50
2023/10/11 11:08:27;;;;;;;2.85;2.65;;;;;;;21.65;65.77;99668.16;5018997;28;20053;-46
2023/10/11 11:13:31;;;;;;;3.47;2.35;;;;;;;21.80;65.71;99671.75;5036549;28;20441;-45
2023/10/11 11:15:58;;;;;;;1.85;1.40;;;;;;;21.58;66.20;99668.50;5004954;28;20046;-47
2023/10/11 11:18:31;;;;;;;1.77;1.33;;;;;;;21.51;66.59;99664.47;5019153;28;20514;-50
2023/10/11 11:21:17;;;;;;;2.00;1.17;;;;;;;21.46;67.01;99679.69;5017780;28;20137;-46
2023/10/11 11:23:45;;;;;;;1.95;0.98;;;;;;;21.36;66.96;99689.88;5012182;28;20046;-46
2023/10/11 11:26:15;;;;;;;2.67;1.25;;;;;;;21.28;66.61;99686.81;5008440;28;20506;-47
2023/10/11 11:29:08;;;;;;;3.05;1.00;;;;;;;21.17;67.15;99679.47;5022900;28;20050;-50
2023/10/11 11:31:52;;;;;;;1.65;1.55;;;;;;;21.03;67.73;99661.78;5022684;28;20084;-47
2023/10/11 11:34:34;;;;;;;2.17;1.10;;;;;;;21.01;67.90;99668.91;5020312;28;20088;-46
2023/10/11 11:37:06;;;;;;;2.05;1.20;;;;;;;20.93;67.90;99677.19;5019092;28;20144;-48
2023/10/11 11:39:50;;;;;;;1.80;0.98;;;;;;;20.86;68.26;99681.03;5025294;28;20042;-51
2023/10/11 11:42:20;;;;;;;2.80;1.27;;;;;;;20.84;68.29;99677.66;5023238;28;20159;-49
2023/10/11 11:44:49;;;;;;;3.10;1.50;;;;;;;20.77;67.99;99670.06;5026231;28;20045;-47
2023/10/11 11:47:21;;;;;;;3.80;1.75;;;;;;;20.74;68.85;99666.75;5022058;28;20063;-49
2023/10/11 11:49:53;;;;;;;5.22;1.55;;;;;;;20.72;68.58;99660.72;5023143;28;20053;-47
2023/10/11 11:52:21;;;;;;;3.38;1.70;;;;;;;20.68;68.87;99663.50;5016082;28;20153;-46
2023/10/11 11:54:49;;;;;;;4.00;1.60;;;;;;;20.65;68.86;99657.56;5021642;28;20457;-49
2023/10/11 11:57:16;;;;;;;2.90;1.50;;;;;;;20.62;69.13;99657.69;5023939;28;20053;-49
2023/10/11 11:59:43;;;;;;;3.50;1.80;;;;;;;20.59;69.18;99649.97;5012898;28;20057;-50
2023/10/11 12:02:16;;;;;;;4.85;1.90;;;;;;;20.52;68.95;99639.78;5017856;28;20078;-51
2023/10/11 12:04:44;;;;;;;5.50;2.33;;;;;;;20.52;69.72;99646.78;5019302;28;20061;-48
2023/10/11 12:07:12;;;;;;;3.38;1.73;;;;;;;20.52;69.23;99641.53;5017511;28;20429;-48
2023/10/11 12:09:39;;;;;;;5.53;2.67;;;;;;;20.50;69.07;99635.53;5021125;28;20439;-49
2023/10/11 12:12:26;;;;;;;4.68;2.40;;;;;;;20.47;68.93;99622.53;5015771;28;20057;-49
2023/10/11 12:14:53;;;;;;;3.88;2.40;;;;;;;20.43;69.34;99619.19;5018426;28;20048;-47
2023/10/11 12:17:20;;;;;;;6.97;2.40;;;;;;;20.39;69.26;99620.25;5014170;28;20069;-50
2023/10/11 12:19:53;;;;;;;6.78;2.47;;;;;;;20.36;69.12;99630.97;5015396;28;20056;-49
2023/10/11 12:22:22;;;;;;;8.82;2.85;;;;;;;20.31;69.42;99638.22;5020933;28;20076;-47
2023/10/11 12:24:52;;;;;;;9.18;3.40;;;;;;;20.26;69.65;99646.31;5010455;28;20161;-48
2023/10/11 12:27:20;;;;;;;6.88;3.00;;;;;;;20.21;69.49;99643.94;5005499;28;20427;-46
2023/10/11 12:29:49;;;;;;;8.07;2.72;;;;;;;20.14;70.06;99629.41;5008092;28;20054;-50
2023/10/11 12:32:34;;;;;;;5.63;2.38;;;;;;;20.08;69.91;99627.06;5005745;28;20137;-50
2023/10/11 12:35:05;;;;;;;6.68;2.60;;;;;;;20.03;70.36;99620.25;5008049;28;20046;-52
2023/10/11 12:37:33;;;;;;;10.20;3.25;;;;;;;19.99;70.43;99599.44;5010535;28;20057;-50
2023/10/11 12:40:00;;;;;;;6.63;3.15;;;;;;;19.96;70.36;99597.78;5000549;28;20104;-47
2023/10/11 12:42:27;;;;;;;5.75;2.95;;;;;;;19.94;70.47;99590.91;5004653;28;20049;-51
2023/10/11 12:44:54;;;;;;;4.72;2.75;;;;;;;19.89;70.84;99575.38;5000271;28;20206;-48
2023/10/11 12:47:20;;;;;;;4.90;2.75;;;;;;;19.88;71.34;99568.41;5009950;28;20466;-51
2023/10/11 12:49:47;;;;;;;7.95;2.63;;;;;;;19.87;70.93;99567.59;5006057;28;20456;-51
2023/10/11 12:52:18;;;;;;;7.60;2.88;;;;;;;19.83;71.03;99568.66;5008196;28;20050;-46
2023/10/11 12:54:45;;;;;;;5.85;2.97;;;;;;;19.78;71.43;99579.38;5006591;28;20470;-49
2023/10/11 12:57:15;;;;;;;10.70;3.17;;;;;;;19.80;71.58;99573.19;5005072;28;20387;-48
2023/10/11 12:59:42;;;;;;;8.88;2.97;;;;;;;19.77;71.58;99567.19;5008219;28;20048;-47
2023/10/11 13:02:11;;;;;;;6.30;3.10;;;;;;;19.74;71.73;99569.97;5001082;28;20050;-47
2023/10/11 13:04:41;;;;;;;9.65;3.42;;;;;;;19.70;71.78;99576.28;5005191;28;20042;-53
2023/10/11 13:07:13;;;;;;;11.98;4.78;;;;;;;19.64;71.71;99581.81;5010198;28;20045;-49
2023/10/11 13:09:41;;;;;;;11.48;3.35;;;;;;;19.60;71.71;99575.88;5005493;28;20042;-47